Time;durP1;ratioP1;P1;durP2;ratioP2;P2;SDS_P1;SDS_P2;PMS_P1;PMS_P2;Temp;Humidity;BMP_temperature;BMP_pressure;BME280_temperature;BME280_humidity;BME280_pressure;Samples;Min_cycle;Max_cycle;Signal;HPM_P1;HPM_P2
2023/12/08 00:01:51;;;;;;;44.23;21.10;;;1.90;99.90;;;;;;5029504;28;20549;-64
2023/12/08 00:04:18;;;;;;;38.23;19.37;;;1.80;99.90;;;;;;5023495;28;20176;-63
2023/12/08 00:06:43;;;;;;;46.17;22.33;;;1.80;99.90;;;;;;5025753;28;20190;-63
2023/12/08 00:09:09;;;;;;;41.10;20.27;;;1.80;99.90;;;;;;5019365;28;20411;-63
2023/12/08 00:11:36;;;;;;;38.87;20.83;;;1.90;99.90;;;;;;5031056;28;20211;-63
2023/12/08 00:14:02;;;;;;;42.23;20.70;;;1.90;99.90;;;;;;5020406;28;20457;-64
2023/12/08 00:16:30;;;;;;;35.40;22.27;;;1.90;99.90;;;;;;5035107;28;20411;-64
2023/12/08 00:18:55;;;;;;;39.93;19.00;;;1.90;99.90;;;;;;5033956;28;20721;-63
2023/12/08 00:21:21;;;;;;;40.00;20.43;;;1.90;99.90;;;;;;5033684;28;20422;-63
2023/12/08 00:23:46;;;;;;;57.13;22.90;;;1.90;99.90;;;;;;5033957;28;20172;-64
2023/12/08 00:26:12;;;;;;;37.57;20.07;;;1.90;99.90;;;;;;5033771;28;20171;-64
2023/12/08 00:28:38;;;;;;;46.27;21.20;;;1.80;99.90;;;;;;5033538;28;20168;-64
2023/12/08 00:31:04;;;;;;;42.57;19.60;;;1.80;99.90;;;;;;5033771;28;20210;-62
2023/12/08 00:33:29;;;;;;;46.77;20.20;;;1.80;99.90;;;;;;5020204;28;20180;-63
2023/12/08 00:35:55;;;;;;;40.90;20.90;;;1.70;99.90;;;;;;5032558;28;20417;-63
2023/12/08 00:38:21;;;;;;;50.57;23.53;;;1.70;99.90;;;;;;5011754;28;20175;-63
2023/12/08 00:40:46;;;;;;;47.87;21.17;;;1.70;99.90;;;;;;5027454;28;20607;-63
2023/12/08 00:43:12;;;;;;;47.00;22.63;;;1.70;99.90;;;;;;5028530;28;20259;-63
2023/12/08 00:45:37;;;;;;;37.53;20.63;;;1.60;99.90;;;;;;5026185;28;20253;-63
2023/12/08 00:48:03;;;;;;;42.77;19.20;;;1.60;99.90;;;;;;5033007;28;20167;-62
2023/12/08 00:50:29;;;;;;;47.10;22.17;;;1.60;99.90;;;;;;5032228;28;20207;-62
2023/12/08 00:52:54;;;;;;;51.03;21.50;;;1.60;99.90;;;;;;5032668;28;20407;-62
2023/12/08 00:55:20;;;;;;;44.13;20.83;;;1.60;99.90;;;;;;5033095;28;20473;-62
2023/12/08 00:57:46;;;;;;;41.97;21.57;;;1.60;99.90;;;;;;5033096;28;20171;-61
2023/12/08 01:00:11;;;;;;;42.93;21.77;;;1.60;99.90;;;;;;5019468;28;20594;-62
2023/12/08 01:02:37;;;;;;;43.77;19.70;;;1.60;99.90;;;;;;5034984;28;20179;-63
2023/12/08 01:05:03;;;;;;;49.93;22.73;;;1.60;99.90;;;;;;5033153;28;20413;-63
2023/12/08 01:07:29;;;;;;;44.70;21.33;;;1.60;99.90;;;;;;5025681;28;20187;-63
2023/12/08 01:09:55;;;;;;;45.77;20.23;;;1.60;99.90;;;;;;5023323;28;20424;-64
2023/12/08 01:12:21;;;;;;;50.73;21.60;;;1.60;99.90;;;;;;5028134;28;20224;-63
2023/12/08 01:14:47;;;;;;;44.67;23.37;;;1.60;99.90;;;;;;5025961;28;20453;-63
2023/12/08 01:17:12;;;;;;;46.73;20.70;;;1.60;99.90;;;;;;5031810;28;20714;-63
2023/12/08 01:19:38;;;;;;;37.43;18.00;;;1.60;99.90;;;;;;5032913;28;20261;-63
2023/12/08 01:22:03;;;;;;;47.50;22.73;;;1.60;99.90;;;;;;5036172;28;20562;-61
2023/12/08 01:24:29;;;;;;;52.13;23.30;;;1.60;99.90;;;;;;4998357;28;20190;-63
2023/12/08 01:26:55;;;;;;;40.50;19.73;;;1.60;99.90;;;;;;5031887;28;20184;-63
2023/12/08 01:29:20;;;;;;;43.60;20.50;;;1.60;99.90;;;;;;5031125;28;20175;-62
2023/12/08 01:31:46;;;;;;;43.47;23.40;;;1.60;99.90;;;;;;5029424;28;20278;-63
2023/12/08 01:34:11;;;;;;;48.27;20.67;;;1.60;99.90;;;;;;5033684;28;20643;-57
2023/12/08 01:36:37;;;;;;;51.00;20.37;;;1.60;99.90;;;;;;5032158;28;20222;-65
2023/12/08 01:39:02;;;;;;;49.63;21.53;;;1.60;99.90;;;;;;5036720;28;20178;-63
2023/12/08 01:41:28;;;;;;;49.03;20.43;;;1.60;99.90;;;;;;5031056;28;20663;-64
2023/12/08 01:43:54;;;;;;;39.73;19.87;;;1.60;99.90;;;;;;5030903;28;20184;-63
2023/12/08 01:46:21;;;;;;;38.37;20.13;;;1.50;99.90;;;;;;5041499;28;20182;-63
2023/12/08 01:48:47;;;;;;;43.07;20.20;;;1.50;99.90;;;;;;5034600;28;20688;-64
2023/12/08 01:51:14;;;;;;;44.47;18.50;;;1.50;99.90;;;;;;5043227;28;20457;-64
2023/12/08 01:53:41;;;;;;;51.33;19.90;;;1.60;99.90;;;;;;5026517;28;20513;-64
2023/12/08 01:56:08;;;;;;;39.00;21.13;;;1.50;99.90;;;;;;5031893;28;20506;-64
2023/12/08 01:58:34;;;;;;;58.40;20.20;;;1.50;99.90;;;;;;5032571;28;20411;-63
2023/12/08 02:01:04;;;;;;;47.67;22.97;;;1.50;99.90;;;;;;5028790;28;20461;-64
2023/12/08 02:03:35;;;;;;;41.27;21.13;;;1.50;99.90;;;;;;5028072;28;20414;-62
2023/12/08 02:06:01;;;;;;;48.07;19.90;;;1.60;99.90;;;;;;5036974;28;20537;-62
2023/12/08 02:08:27;;;;;;;49.57;22.60;;;1.50;99.90;;;;;;5029614;28;20415;-63
2023/12/08 02:10:53;;;;;;;45.67;23.97;;;1.60;99.90;;;;;;5023549;28;20531;-63
2023/12/08 02:13:20;;;;;;;45.23;21.77;;;1.60;99.90;;;;;;5038967;28;20912;-63
2023/12/08 02:15:49;;;;;;;56.53;22.57;;;1.60;99.90;;;;;;5038406;28;20425;-62
2023/12/08 02:18:15;;;;;;;54.83;22.37;;;1.60;99.90;;;;;;5028664;28;20450;-63
2023/12/08 02:20:44;;;;;;;48.60;21.87;;;1.60;99.90;;;;;;5039932;28;20521;-63
2023/12/08 02:23:09;;;;;;;46.67;20.17;;;1.60;99.90;;;;;;5036225;28;20430;-63
2023/12/08 02:25:35;;;;;;;54.93;25.10;;;1.60;99.90;;;;;;5029086;28;20422;-63
2023/12/08 02:28:06;;;;;;;53.67;24.33;;;1.60;99.90;;;;;;5029977;28;20175;-64
2023/12/08 02:30:32;;;;;;;47.47;19.90;;;1.60;99.90;;;;;;5039887;28;20230;-63
2023/12/08 02:33:11;;;;;;;48.93;22.37;;;1.60;99.90;;;;;;5029675;28;20430;-63
2023/12/08 02:35:41;;;;;;;44.30;22.00;;;1.60;99.90;;;;;;5019391;28;20428;-65
2023/12/08 02:38:08;;;;;;;53.10;22.10;;;1.60;99.90;;;;;;5029336;28;20454;-64
2023/12/08 02:40:37;;;;;;;42.50;20.93;;;1.60;99.90;;;;;;5029108;28;20466;-63
2023/12/08 02:43:03;;;;;;;50.57;20.90;;;1.60;99.90;;;;;;5026920;28;20513;-62
2023/12/08 02:45:29;;;;;;;49.90;21.70;;;1.50;99.90;;;;;;5030355;28;20411;-64
2023/12/08 02:47:54;;;;;;;48.20;23.47;;;1.60;99.90;;;;;;5021660;28;20547;-63
2023/12/08 02:50:20;;;;;;;46.67;22.07;;;1.60;99.90;;;;;;5028193;28;20218;-62
2023/12/08 02:52:45;;;;;;;49.57;20.63;;;1.60;99.90;;;;;;5030529;28;20640;-65
2023/12/08 02:55:11;;;;;;;43.30;21.20;;;1.60;99.90;;;;;;5028373;28;20187;-64
2023/12/08 02:57:37;;;;;;;47.43;22.53;;;1.70;99.90;;;;;;5027459;28;20214;-64
2023/12/08 03:00:03;;;;;;;53.50;21.77;;;1.60;99.90;;;;;;5031091;28;20195;-64
2023/12/08 03:02:29;;;;;;;53.87;21.83;;;1.70;99.90;;;;;;5031590;28;20175;-64
2023/12/08 03:04:54;;;;;;;47.53;23.67;;;1.70;99.90;;;;;;5036062;28;20426;-63
2023/12/08 03:07:20;;;;;;;45.70;22.37;;;1.70;99.90;;;;;;5011775;28;20187;-64
2023/12/08 03:09:45;;;;;;;43.50;21.10;;;1.70;99.90;;;;;;5012507;28;20190;-64
2023/12/08 03:12:11;;;;;;;46.33;20.00;;;1.70;99.90;;;;;;5035613;28;20195;-63
2023/12/08 03:14:36;;;;;;;44.63;22.23;;;1.70;99.90;;;;;;5033733;28;20179;-63
2023/12/08 03:17:02;;;;;;;44.67;22.50;;;1.70;99.90;;;;;;5024118;28;20171;-63
2023/12/08 03:19:28;;;;;;;43.80;24.13;;;1.70;99.90;;;;;;5030611;28;20255;-63
2023/12/08 03:21:53;;;;;;;54.37;22.50;;;1.80;99.90;;;;;;5039722;28;20256;-63
2023/12/08 03:24:19;;;;;;;54.27;24.00;;;1.70;99.90;;;;;;5034314;28;20222;-63
2023/12/08 03:26:46;;;;;;;52.23;22.57;;;1.80;99.90;;;;;;5034503;28;20250;-61
2023/12/08 03:29:15;;;;;;;43.37;23.17;;;1.80;99.90;;;;;;5034440;28;20184;-63
2023/12/08 03:31:41;;;;;;;46.30;18.47;;;1.80;99.90;;;;;;5034201;28;20465;-62
2023/12/08 03:34:06;;;;;;;43.93;21.73;;;1.80;99.90;;;;;;5034680;28;20402;-63
2023/12/08 03:36:32;;;;;;;45.77;22.23;;;1.80;99.90;;;;;;5029908;28;20635;-62
2023/12/08 03:38:57;;;;;;;45.67;22.30;;;1.80;99.90;;;;;;5029206;28;20176;-62
2023/12/08 03:41:23;;;;;;;46.27;23.80;;;1.80;99.90;;;;;;5036524;28;20219;-63
2023/12/08 03:43:49;;;;;;;57.53;24.27;;;1.80;99.90;;;;;;5033671;28;20201;-62
2023/12/08 03:46:14;;;;;;;45.83;21.20;;;1.90;99.90;;;;;;5026252;28;20644;-64
2023/12/08 03:48:40;;;;;;;49.17;20.40;;;1.80;99.90;;;;;;5032097;28;20541;-63
2023/12/08 03:51:06;;;;;;;49.80;25.27;;;1.80;99.90;;;;;;5027832;28;20230;-62
2023/12/08 03:53:32;;;;;;;48.90;25.40;;;1.90;99.90;;;;;;5023131;28;20266;-62
2023/12/08 03:55:58;;;;;;;49.50;24.63;;;1.90;99.90;;;;;;5033452;28;20168;-63
2023/12/08 03:58:24;;;;;;;45.57;22.20;;;1.90;99.90;;;;;;5018560;28;20620;-63
2023/12/08 04:00:50;;;;;;;48.70;20.43;;;1.90;99.90;;;;;;5032935;28;20207;-64
2023/12/08 04:03:15;;;;;;;47.83;23.43;;;1.90;99.90;;;;;;5036306;28;20909;-63
2023/12/08 04:05:41;;;;;;;55.50;26.53;;;1.90;99.90;;;;;;5032962;28;20171;-65
2023/12/08 04:08:07;;;;;;;46.70;23.23;;;1.90;99.90;;;;;;5033742;28;20190;-63
2023/12/08 04:10:32;;;;;;;54.37;23.80;;;1.90;99.90;;;;;;5033363;28;20677;-63
2023/12/08 04:12:58;;;;;;;46.30;22.30;;;1.90;99.90;;;;;;5027721;28;20164;-65
2023/12/08 04:15:23;;;;;;;57.97;27.90;;;1.90;99.90;;;;;;5022750;28;20673;-63
2023/12/08 04:17:49;;;;;;;46.77;23.50;;;1.90;99.90;;;;;;5028081;28;20543;-63
2023/12/08 04:20:17;;;;;;;51.73;23.27;;;1.90;99.90;;;;;;5025352;28;20579;-63
2023/12/08 04:22:43;;;;;;;58.23;24.97;;;1.90;99.90;;;;;;5027930;28;20177;-63
2023/12/08 04:25:08;;;;;;;43.60;22.50;;;1.90;99.90;;;;;;5031319;28;20496;-62
2023/12/08 04:27:34;;;;;;;43.90;22.90;;;1.90;99.90;;;;;;5030551;28;20187;-62
2023/12/08 04:29:59;;;;;;;42.57;23.87;;;2.00;99.90;;;;;;5030021;28;20188;-63
2023/12/08 04:32:25;;;;;;;43.03;20.97;;;2.00;99.90;;;;;;5024489;28;20593;-63
2023/12/08 04:34:50;;;;;;;49.80;23.80;;;2.00;99.90;;;;;;5023690;28;20568;-63
2023/12/08 04:37:16;;;;;;;54.33;23.83;;;2.00;99.90;;;;;;5029281;28;20233;-63
2023/12/08 04:39:42;;;;;;;55.63;24.20;;;1.90;99.90;;;;;;5032567;28;20199;-64
2023/12/08 04:42:07;;;;;;;61.23;23.20;;;2.00;99.90;;;;;;5027169;28;20223;-64
2023/12/08 04:44:33;;;;;;;46.23;25.17;;;2.00;99.90;;;;;;5028429;28;20568;-64
2023/12/08 04:47:00;;;;;;;49.07;24.30;;;2.00;99.90;;;;;;5029331;28;20226;-64
2023/12/08 04:49:25;;;;;;;49.50;24.27;;;1.90;99.90;;;;;;5022565;28;20187;-63
2023/12/08 04:51:51;;;;;;;50.40;25.70;;;2.00;99.90;;;;;;5030022;28;20474;-63
2023/12/08 04:54:17;;;;;;;45.33;25.73;;;2.00;99.90;;;;;;5030166;28;20176;-63
2023/12/08 04:56:42;;;;;;;48.77;23.87;;;2.00;99.90;;;;;;5027437;28;20789;-63
2023/12/08 04:59:09;;;;;;;56.77;25.17;;;2.00;99.90;;;;;;5024454;28;20242;-63
2023/12/08 05:01:37;;;;;;;43.10;23.10;;;2.00;99.90;;;;;;5024387;28;20227;-63
2023/12/08 05:04:03;;;;;;;44.87;23.90;;;2.00;99.90;;;;;;5030270;28;20814;-66
2023/12/08 05:06:29;;;;;;;41.27;22.77;;;2.00;99.90;;;;;;5033147;28;20418;-63
2023/12/08 05:08:55;;;;;;;44.23;22.30;;;2.00;99.90;;;;;;5035293;28;20183;-63
2023/12/08 05:11:20;;;;;;;43.37;22.63;;;2.00;99.90;;;;;;5035480;28;20551;-63
2023/12/08 05:13:46;;;;;;;44.73;21.50;;;2.00;99.90;;;;;;5027250;28;20521;-65
2023/12/08 05:16:12;;;;;;;45.30;21.73;;;2.00;99.90;;;;;;5025422;28;20179;-64
2023/12/08 05:18:38;;;;;;;46.93;24.57;;;2.00;99.90;;;;;;5027962;28;20180;-63
2023/12/08 05:21:04;;;;;;;51.20;25.63;;;2.00;99.90;;;;;;5032056;28;20204;-64
2023/12/08 05:23:30;;;;;;;44.07;24.33;;;2.00;99.90;;;;;;5028016;28;20933;-63
2023/12/08 05:25:55;;;;;;;46.30;23.40;;;2.00;99.90;;;;;;5028190;28;20175;-63
2023/12/08 05:28:21;;;;;;;40.67;24.67;;;2.00;99.90;;;;;;5026840;28;20704;-65
2023/12/08 05:30:46;;;;;;;46.90;20.67;;;2.00;99.90;;;;;;5031250;28;20840;-65
2023/12/08 05:33:12;;;;;;;38.50;21.30;;;2.00;99.90;;;;;;5028537;28;20180;-63
2023/12/08 05:35:38;;;;;;;44.53;22.60;;;2.00;99.90;;;;;;5027869;28;20270;-63
2023/12/08 05:38:03;;;;;;;42.83;21.53;;;2.00;99.90;;;;;;5033377;28;20248;-63
2023/12/08 05:40:29;;;;;;;46.27;22.07;;;2.00;99.90;;;;;;5028903;28;20215;-63
2023/12/08 05:42:54;;;;;;;39.40;21.43;;;2.00;99.90;;;;;;5037088;28;20187;-64
2023/12/08 05:45:20;;;;;;;39.90;22.37;;;2.00;99.90;;;;;;5029706;28;20192;-63
2023/12/08 05:47:46;;;;;;;41.30;22.30;;;2.00;99.90;;;;;;5029714;28;20186;-63
2023/12/08 05:50:11;;;;;;;44.37;23.37;;;2.00;99.90;;;;;;5030313;28;20219;-63
2023/12/08 05:52:37;;;;;;;39.37;23.13;;;2.00;99.90;;;;;;5031281;28;20195;-63
2023/12/08 05:55:09;;;;;;;38.17;21.93;;;2.00;99.90;;;;;;5061150;28;20531;-65
2023/12/08 05:57:35;;;;;;;36.83;20.73;;;2.00;99.90;;;;;;5064805;28;20554;-60
2023/12/08 06:00:01;;;;;;;33.50;20.13;;;2.00;99.90;;;;;;5065567;28;20186;-62
2023/12/08 06:02:27;;;;;;;43.40;22.33;;;2.00;99.90;;;;;;5060950;28;20417;-62
2023/12/08 06:04:52;;;;;;;39.00;20.10;;;2.00;99.90;;;;;;5053116;28;20441;-62
2023/12/08 06:07:18;;;;;;;38.20;21.90;;;2.00;99.90;;;;;;5059422;28;20186;-62
2023/12/08 06:09:43;;;;;;;35.60;21.57;;;2.00;99.90;;;;;;5057031;28;20193;-63
2023/12/08 06:12:09;;;;;;;37.13;22.07;;;1.90;99.90;;;;;;5059497;28;20212;-63
2023/12/08 06:14:35;;;;;;;37.47;22.73;;;1.90;99.90;;;;;;5068714;28;20209;-63
2023/12/08 06:17:00;;;;;;;38.93;20.90;;;1.90;99.90;;;;;;5063365;28;20504;-63
2023/12/08 06:19:26;;;;;;;39.57;21.80;;;1.90;99.90;;;;;;5070114;28;20261;-63
2023/12/08 06:21:51;;;;;;;36.10;20.93;;;1.90;99.90;;;;;;5056798;28;20582;-63
2023/12/08 06:24:17;;;;;;;36.10;22.53;;;2.00;99.90;;;;;;5057316;28;20186;-63
2023/12/08 06:26:42;;;;;;;41.17;21.80;;;1.90;99.90;;;;;;5063488;28;20192;-63
2023/12/08 06:29:08;;;;;;;38.87;21.47;;;1.90;99.90;;;;;;5060482;28;20232;-64
2023/12/08 06:31:34;;;;;;;37.63;21.13;;;1.80;99.90;;;;;;5059408;28;20626;-64
2023/12/08 06:34:00;;;;;;;43.30;21.77;;;1.80;99.90;;;;;;5056814;28;20225;-64
2023/12/08 06:36:26;;;;;;;31.70;19.47;;;1.70;99.90;;;;;;5059728;28;20170;-64
2023/12/08 06:38:52;;;;;;;39.67;22.50;;;1.70;99.90;;;;;;5055391;28;20460;-64
2023/12/08 06:41:17;;;;;;;35.37;22.53;;;1.60;99.90;;;;;;5061975;28;20425;-63
2023/12/08 06:43:43;;;;;;;36.07;19.00;;;1.60;99.90;;;;;;5062634;28;20166;-64
2023/12/08 06:46:08;;;;;;;33.10;20.40;;;1.60;99.90;;;;;;5051391;28;20220;-63
2023/12/08 06:48:34;;;;;;;34.90;21.87;;;1.60;99.90;;;;;;5053844;28;20572;-63
2023/12/08 06:51:00;;;;;;;42.37;22.80;;;1.60;99.90;;;;;;5065739;28;20244;-63
2023/12/08 06:53:25;;;;;;;39.93;20.23;;;1.60;99.90;;;;;;5050995;28;20234;-62
2023/12/08 06:55:51;;;;;;;36.63;19.60;;;1.60;99.90;;;;;;5058472;28;20209;-62
2023/12/08 06:58:17;;;;;;;44.00;21.23;;;1.60;99.90;;;;;;5066311;28;20186;-63
2023/12/08 07:00:42;;;;;;;37.67;22.80;;;1.60;99.90;;;;;;5059445;28;20641;-64
2023/12/08 07:03:36;;;;;;;35.83;21.47;;;1.60;99.90;;;;;;5056035;28;20465;-64
2023/12/08 07:06:02;;;;;;;38.47;21.30;;;1.60;99.90;;;;;;5046359;28;20178;-64
2023/12/08 07:08:30;;;;;;;39.53;24.07;;;1.60;99.90;;;;;;5049534;28;20417;-61
2023/12/08 07:10:56;;;;;;;41.10;21.00;;;1.70;99.90;;;;;;5039587;28;20434;-62
2023/12/08 07:13:21;;;;;;;39.17;22.33;;;1.70;99.90;;;;;;5039800;28;20544;-62
2023/12/08 07:15:47;;;;;;;34.93;21.97;;;1.70;99.90;;;;;;5036099;28;20175;-63
2023/12/08 07:18:12;;;;;;;36.03;21.30;;;1.70;99.90;;;;;;5047345;28;20174;-64
2023/12/08 07:20:38;;;;;;;35.00;20.60;;;1.70;99.90;;;;;;5044653;28;20197;-66
2023/12/08 07:23:04;;;;;;;40.87;25.13;;;1.60;99.90;;;;;;5036691;28;20179;-64
2023/12/08 07:25:31;;;;;;;37.53;20.10;;;1.60;99.90;;;;;;5040377;28;20441;-63
2023/12/08 07:27:57;;;;;;;34.80;20.97;;;1.60;99.90;;;;;;5039805;28;20176;-66
2023/12/08 07:30:23;;;;;;;40.43;21.10;;;1.60;99.90;;;;;;5038987;28;20835;-64
2023/12/08 07:32:48;;;;;;;39.27;23.97;;;1.50;99.90;;;;;;5037276;28;20179;-63
2023/12/08 07:35:14;;;;;;;34.40;20.53;;;1.50;99.90;;;;;;5040778;28;20179;-63
2023/12/08 07:37:40;;;;;;;36.60;21.80;;;1.50;99.90;;;;;;5039255;28;20498;-63
2023/12/08 07:40:07;;;;;;;41.70;21.90;;;1.50;99.90;;;;;;5040511;28;20430;-63
2023/12/08 07:42:33;;;;;;;37.73;21.90;;;1.50;99.90;;;;;;5036663;28;20175;-64
2023/12/08 07:44:59;;;;;;;32.20;21.50;;;1.40;99.90;;;;;;5040487;28;20627;-64
2023/12/08 07:47:24;;;;;;;38.23;22.20;;;1.40;99.90;;;;;;5036519;28;20183;-64
2023/12/08 07:49:50;;;;;;;41.83;21.73;;;1.40;99.90;;;;;;5040220;28;20418;-63
2023/12/08 07:52:16;;;;;;;40.43;20.77;;;1.40;99.90;;;;;;5038856;28;20858;-64
2023/12/08 07:54:42;;;;;;;34.97;23.03;;;1.40;99.90;;;;;;5037759;28;20343;-64
2023/12/08 07:57:07;;;;;;;34.67;21.50;;;1.40;99.90;;;;;;5044172;28;20913;-63
2023/12/08 07:59:33;;;;;;;39.63;22.17;;;1.40;99.90;;;;;;5036620;28;20171;-63
2023/12/08 08:01:59;;;;;;;36.33;21.03;;;1.40;99.90;;;;;;5039511;28;20940;-65
2023/12/08 08:04:25;;;;;;;36.17;19.00;;;1.40;99.90;;;;;;5038007;28;20175;-62
2023/12/08 08:06:51;;;;;;;38.67;22.23;;;1.40;99.90;;;;;;5036385;28;20182;-64
2023/12/08 08:09:17;;;;;;;33.73;21.30;;;1.40;99.90;;;;;;5040071;28;20509;-63
2023/12/08 08:11:43;;;;;;;34.43;19.30;;;1.40;99.90;;;;;;5039769;28;20473;-61
2023/12/08 08:14:09;;;;;;;34.00;19.73;;;1.40;99.90;;;;;;5036237;28;20987;-63
2023/12/08 08:16:34;;;;;;;34.13;22.10;;;1.40;99.90;;;;;;5037144;28;20167;-64
2023/12/08 08:19:00;;;;;;;30.03;20.13;;;1.50;99.90;;;;;;5037740;28;20258;-64
2023/12/08 08:21:26;;;;;;;32.73;20.97;;;1.50;99.90;;;;;;5037429;28;20199;-63
2023/12/08 08:23:51;;;;;;;34.33;18.90;;;1.50;99.90;;;;;;5036918;28;20237;-62
2023/12/08 08:26:17;;;;;;;28.90;16.67;;;1.50;99.90;;;;;;5036839;28;20234;-60
2023/12/08 08:28:42;;;;;;;28.57;17.33;;;1.40;99.90;;;;;;5034564;28;20214;-63
2023/12/08 08:31:09;;;;;;;32.03;20.10;;;1.50;99.90;;;;;;5036395;28;20286;-66
2023/12/08 08:33:34;;;;;;;32.50;20.20;;;1.40;99.90;;;;;;5037603;28;20195;-66
2023/12/08 08:36:01;;;;;;;33.80;20.67;;;1.40;99.90;;;;;;5038016;28;20413;-67
2023/12/08 08:38:27;;;;;;;21.43;16.70;;;1.50;99.90;;;;;;5034006;28;20171;-69
2023/12/08 08:40:52;;;;;;;30.80;20.87;;;1.50;99.90;;;;;;5035507;28;20430;-63
2023/12/08 08:43:18;;;;;;;32.83;20.30;;;1.50;99.90;;;;;;5038211;28;20187;-63
2023/12/08 08:45:44;;;;;;;32.97;19.53;;;1.50;99.90;;;;;;5036019;28;20651;-66
2023/12/08 08:48:10;;;;;;;30.13;17.83;;;1.50;99.90;;;;;;5037846;28;20225;-67
2023/12/08 08:50:35;;;;;;;35.97;22.83;;;1.50;99.90;;;;;;5040710;28;20480;-64
2023/12/08 08:53:01;;;;;;;38.43;19.97;;;1.80;99.90;;;;;;5033079;28;20199;-64
2023/12/08 08:55:27;;;;;;;28.90;17.47;;;1.80;99.90;;;;;;5035442;28;20176;-63
2023/12/08 08:57:54;;;;;;;33.10;18.53;;;1.60;99.90;;;;;;5037788;28;20179;-63
2023/12/08 09:00:21;;;;;;;25.00;17.13;;;1.60;99.90;;;;;;5039631;28;20572;-63
2023/12/08 09:02:51;;;;;;;28.80;18.03;;;1.60;99.90;;;;;;5035220;28;20507;-63
2023/12/08 09:05:20;;;;;;;33.67;20.03;;;1.50;99.90;;;;;;5038434;28;20423;-62
2023/12/08 09:07:45;;;;;;;30.10;19.40;;;1.60;99.90;;;;;;5036855;28;20403;-63
2023/12/08 09:10:11;;;;;;;28.20;18.13;;;1.60;99.90;;;;;;5039366;28;20409;-62
2023/12/08 09:12:37;;;;;;;26.27;16.10;;;1.50;99.90;;;;;;5036722;28;20266;-63
2023/12/08 09:15:03;;;;;;;27.70;17.00;;;1.60;99.90;;;;;;5039513;28;20458;-63
2023/12/08 09:17:30;;;;;;;31.77;18.60;;;1.60;99.90;;;;;;5032489;28;20172;-63
2023/12/08 09:19:55;;;;;;;31.83;16.00;;;1.70;99.90;;;;;;5036749;28;20521;-68
2023/12/08 09:22:22;;;;;;;27.13;16.50;;;1.70;99.90;;;;;;5038046;28;20612;-63
2023/12/08 09:24:47;;;;;;;28.27;17.10;;;1.60;99.90;;;;;;5036243;28;20179;-60
2023/12/08 09:27:13;;;;;;;24.17;18.27;;;1.70;99.90;;;;;;5035095;28;20531;-63
2023/12/08 09:29:39;;;;;;;28.53;18.07;;;1.80;99.90;;;;;;5043660;28;20584;-63
2023/12/08 09:32:05;;;;;;;25.10;14.40;;;1.80;99.90;;;;;;5039731;28;20203;-63
2023/12/08 09:34:31;;;;;;;24.00;17.90;;;1.80;99.90;;;;;;5042437;28;20222;-65
2023/12/08 09:36:56;;;;;;;22.33;15.30;;;1.80;99.90;;;;;;5044529;28;20456;-63
2023/12/08 09:39:22;;;;;;;25.43;15.30;;;1.90;99.90;;;;;;5037537;28;20168;-63
2023/12/08 09:41:54;;;;;;;25.70;16.43;;;1.90;99.90;;;;;;5041486;28;20186;-63
2023/12/08 09:44:20;;;;;;;26.70;17.13;;;1.90;99.90;;;;;;5040873;28;20171;-63
2023/12/08 09:46:45;;;;;;;22.70;15.23;;;1.90;99.90;;;;;;5042793;28;20406;-63
2023/12/08 09:49:21;;;;;;;24.60;14.97;;;2.00;99.90;;;;;;5036485;28;20228;-62
2023/12/08 09:51:47;;;;;;;26.70;16.03;;;1.90;99.90;;;;;;5042282;28;20194;-61
2023/12/08 09:54:13;;;;;;;25.33;16.37;;;1.80;99.90;;;;;;5037275;28;20526;-63
2023/12/08 09:56:39;;;;;;;23.37;15.70;;;1.80;99.90;;;;;;5041328;28;20453;-62
2023/12/08 09:59:05;;;;;;;24.17;17.00;;;2.00;99.90;;;;;;5049398;28;20175;-63
2023/12/08 10:01:31;;;;;;;21.43;15.03;;;2.00;99.90;;;;;;5050274;28;20199;-63
2023/12/08 10:03:56;;;;;;;20.47;14.60;;;2.00;99.90;;;;;;5044843;28;20430;-63
2023/12/08 10:06:25;;;;;;;29.43;15.50;;;2.00;99.90;;;;;;5049378;28;20174;-63
2023/12/08 10:08:51;;;;;;;25.90;15.50;;;1.90;99.90;;;;;;5043822;28;20561;-65
2023/12/08 10:11:16;;;;;;;19.20;13.60;;;1.90;99.90;;;;;;5049022;28;20440;-62
2023/12/08 10:13:42;;;;;;;20.37;15.17;;;1.80;99.90;;;;;;5037357;28;20197;-64
2023/12/08 10:16:08;;;;;;;23.10;13.40;;;1.80;99.90;;;;;;5043609;28;20179;-64
2023/12/08 10:18:34;;;;;;;25.23;16.80;;;1.70;99.90;;;;;;5059565;28;20257;-64
2023/12/08 10:21:17;;;;;;;20.80;15.17;;;1.70;99.90;;;;;;5046928;28;20208;-62
2023/12/08 10:23:46;;;;;;;23.83;17.50;;;1.70;99.90;;;;;;5049015;28;20411;-65
2023/12/08 10:26:13;;;;;;;22.47;15.60;;;1.70;99.90;;;;;;5049557;28;20425;-62
2023/12/08 10:28:39;;;;;;;25.60;16.27;;;1.60;99.90;;;;;;5041226;28;20413;-62
2023/12/08 10:31:06;;;;;;;23.27;15.30;;;1.70;99.90;;;;;;5034822;28;20817;-63
2023/12/08 10:33:31;;;;;;;24.20;15.27;;;1.60;99.90;;;;;;5048936;28;20457;-63
2023/12/08 10:35:57;;;;;;;31.63;15.97;;;1.70;99.90;;;;;;5049402;28;20529;-63
2023/12/08 10:38:23;;;;;;;25.10;16.53;;;1.80;99.90;;;;;;5048651;28;20195;-63
2023/12/08 10:40:50;;;;;;;15.00;10.03;;;1.80;99.90;;;;;;5046901;28;20196;-62
2023/12/08 10:43:23;;;;;;;22.90;15.37;;;1.60;99.90;;;;;;5049027;28;20167;-63
2023/12/08 10:45:52;;;;;;;27.00;14.80;;;1.60;99.90;;;;;;5056129;28;20453;-63
2023/12/08 10:48:23;;;;;;;25.10;15.90;;;1.60;99.90;;;;;;5050896;28;20405;-62
2023/12/08 10:50:50;;;;;;;20.67;15.23;;;1.70;99.90;;;;;;5048467;28;20489;-61
2023/12/08 10:53:20;;;;;;;24.37;13.87;;;1.70;99.90;;;;;;5050857;28;20552;-62
2023/12/08 10:56:02;;;;;;;26.30;17.50;;;1.80;99.90;;;;;;5060651;28;20926;-61
2023/12/08 10:58:28;;;;;;;21.10;14.67;;;1.80;99.90;;;;;;5067704;28;20888;-63
2023/12/08 11:00:55;;;;;;;24.90;12.90;;;1.80;99.90;;;;;;5055362;28;20433;-62
2023/12/08 11:03:22;;;;;;;28.10;15.90;;;1.70;99.90;;;;;;5053402;28;20448;-62
2023/12/08 11:06:20;;;;;;;22.00;15.10;;;1.80;99.90;;;;;;5063685;28;20417;-63
2023/12/08 11:08:46;;;;;;;26.10;17.60;;;1.70;99.90;;;;;;5055672;28;20433;-63
2023/12/08 11:11:14;;;;;;;23.07;14.40;;;1.80;99.90;;;;;;5060220;28;20943;-63
2023/12/08 11:13:47;;;;;;;23.17;16.00;;;1.70;99.90;;;;;;5061350;28;20460;-63
2023/12/08 11:16:37;;;;;;;20.67;14.10;;;1.70;99.90;;;;;;5048038;28;20420;-63
2023/12/08 11:19:04;;;;;;;18.50;12.83;;;1.70;99.90;;;;;;5051122;28;20413;-62
2023/12/08 11:21:29;;;;;;;22.23;14.07;;;1.70;99.90;;;;;;5066420;28;20432;-63
2023/12/08 11:23:56;;;;;;;24.27;13.93;;;1.70;99.90;;;;;;5062472;28;20463;-62
2023/12/08 11:26:49;;;;;;;19.97;13.90;;;1.70;99.90;;;;;;5048732;28;20518;-63
2023/12/08 11:30:08;;;;;;;21.03;15.77;;;1.80;99.90;;;;;;5057323;28;20504;-63
2023/12/08 11:33:06;;;;;;;21.63;13.33;;;1.80;99.90;;;;;;5035593;28;20828;-61
2023/12/08 11:35:31;;;;;;;26.17;14.27;;;1.80;99.90;;;;;;5012515;28;20442;-62
2023/12/08 11:37:57;;;;;;;21.10;13.67;;;1.80;99.90;;;;;;5045557;28;20416;-62
2023/12/08 11:40:23;;;;;;;23.20;13.53;;;1.70;99.90;;;;;;5043135;28;20231;-63
2023/12/08 11:42:50;;;;;;;31.13;14.87;;;1.70;99.90;;;;;;5039893;28;20171;-63
2023/12/08 11:45:18;;;;;;;21.77;14.90;;;1.90;99.90;;;;;;5041998;28;20175;-63
2023/12/08 11:47:43;;;;;;;19.87;16.70;;;1.90;99.90;;;;;;5036610;28;20468;-62
2023/12/08 11:50:11;;;;;;;25.07;17.00;;;1.90;99.90;;;;;;5045433;28;20464;-63
2023/12/08 11:52:37;;;;;;;19.80;14.10;;;1.90;99.90;;;;;;5037940;28;20310;-63
2023/12/08 11:55:12;;;;;;;18.80;12.27;;;1.90;99.90;;;;;;5039901;28;20469;-63
2023/12/08 11:57:48;;;;;;;21.70;14.67;;;1.90;99.90;;;;;;5042795;28;20432;-62
2023/12/08 12:00:18;;;;;;;18.37;12.80;;;2.00;99.90;;;;;;5051543;28;20504;-63
2023/12/08 12:02:46;;;;;;;24.23;14.50;;;1.90;99.90;;;;;;5052241;28;20467;-65
2023/12/08 12:05:12;;;;;;;23.07;15.10;;;2.00;99.90;;;;;;5052334;28;20413;-62
2023/12/08 12:07:39;;;;;;;20.60;14.40;;;2.00;99.90;;;;;;5048727;28;20420;-65
2023/12/08 12:10:08;;;;;;;21.47;13.93;;;2.00;99.90;;;;;;5041974;28;20421;-63
2023/12/08 12:12:36;;;;;;;19.10;13.33;;;2.00;99.90;;;;;;5052236;28;20420;-63
2023/12/08 12:15:06;;;;;;;19.83;14.20;;;2.00;99.90;;;;;;5052078;28;20468;-63
2023/12/08 12:17:32;;;;;;;25.30;14.80;;;2.10;99.90;;;;;;5052077;28;20826;-63
2023/12/08 12:19:57;;;;;;;22.30;16.57;;;2.00;99.90;;;;;;5052464;28;20510;-64
2023/12/08 12:22:24;;;;;;;17.73;12.33;;;2.00;99.90;;;;;;5049212;28;20510;-63
2023/12/08 12:24:50;;;;;;;15.63;11.50;;;1.90;99.90;;;;;;5047134;28;20205;-63
2023/12/08 12:27:15;;;;;;;22.60;13.73;;;1.90;99.90;;;;;;5051414;28;20500;-63
2023/12/08 12:29:42;;;;;;;23.63;14.40;;;1.90;99.90;;;;;;5052531;28;20179;-63
2023/12/08 12:32:08;;;;;;;22.37;13.83;;;1.90;99.90;;;;;;5052046;28;20634;-63
2023/12/08 12:34:37;;;;;;;27.50;16.30;;;1.90;99.90;;;;;;5052861;28;20487;-64